Time;durP1;ratioP1;P1;durP2;ratioP2;P2;SDS_P1;SDS_P2;PMS_P1;PMS_P2;Temp;Humidity;BMP_temperature;BMP_pressure;BME280_temperature;BME280_humidity;BME280_pressure;Samples;Min_cycle;Max_cycle;Signal;HPM_P1;HPM_P2
2022/12/05 00:00:52;;;;;;;51.93;27.23;;;4.70;95.60;;;;;;5096805;28;20441;-78
2022/12/05 00:03:18;;;;;;;47.67;26.63;;;4.60;95.60;;;;;;5078740;28;20054;-79
2022/12/05 00:05:44;;;;;;;51.23;29.13;;;4.60;95.60;;;;;;5095469;28;20012;-79
2022/12/05 00:08:10;;;;;;;48.43;28.13;;;4.70;95.70;;;;;;5095478;28;20027;-79
2022/12/05 00:10:36;;;;;;;48.07;27.97;;;4.60;95.70;;;;;;5095187;28;20109;-81
2022/12/05 00:13:02;;;;;;;53.87;29.17;;;4.80;95.70;;;;;;5096480;28;20150;-80
2022/12/05 00:15:28;;;;;;;52.50;28.53;;;4.60;95.70;;;;;;5096562;28;20494;-79
2022/12/05 00:17:54;;;;;;;52.57;29.00;;;4.70;95.80;;;;;;5112504;28;20035;-78
2022/12/05 00:20:20;;;;;;;45.27;24.67;;;4.60;95.90;;;;;;5095125;28;20016;-79
2022/12/05 00:22:45;;;;;;;54.87;29.20;;;4.70;96.00;;;;;;5078156;28;20069;-79
2022/12/05 00:25:11;;;;;;;53.67;29.07;;;4.70;96.10;;;;;;5095031;28;20020;-79
2022/12/05 00:27:36;;;;;;;52.10;29.37;;;4.70;96.00;;;;;;5095120;28;20321;-79
2022/12/05 00:30:03;;;;;;;55.83;30.40;;;4.70;96.10;;;;;;5094955;28;20016;-79
2022/12/05 00:32:29;;;;;;;60.47;31.50;;;4.60;96.20;;;;;;5094834;28;20111;-80
2022/12/05 00:34:55;;;;;;;53.47;27.43;;;4.60;96.50;;;;;;5078165;28;20535;-80
2022/12/05 00:37:21;;;;;;;60.53;30.13;;;4.60;96.20;;;;;;5094801;28;20492;-80
2022/12/05 00:39:47;;;;;;;59.53;30.67;;;4.70;96.50;;;;;;5094803;28;20047;-79
2022/12/05 00:42:13;;;;;;;56.87;30.57;;;4.60;96.50;;;;;;5111676;28;20020;-80
2022/12/05 00:44:38;;;;;;;54.20;30.77;;;4.60;96.90;;;;;;5096301;28;20044;-79
2022/12/05 00:47:04;;;;;;;60.83;31.80;;;4.60;96.70;;;;;;5095810;28;20035;-80
2022/12/05 00:49:30;;;;;;;61.77;32.30;;;4.60;96.80;;;;;;5094469;28;20028;-79
2022/12/05 00:51:56;;;;;;;58.07;31.37;;;4.60;96.80;;;;;;5077646;28;20032;-79
2022/12/05 00:54:21;;;;;;;58.73;30.47;;;4.60;97.00;;;;;;5094425;28;20071;-79
2022/12/05 00:56:47;;;;;;;55.90;30.30;;;4.60;97.30;;;;;;5094413;28;20123;-80
2022/12/05 00:59:18;;;;;;;64.57;32.47;;;4.60;97.10;;;;;;5077496;28;20032;-80
2022/12/05 01:01:45;;;;;;;62.57;30.83;;;4.60;97.40;;;;;;5095722;28;20106;-80
2022/12/05 01:04:17;;;;;;;64.57;31.80;;;4.60;97.40;;;;;;5094545;28;20028;-80
2022/12/05 01:06:43;;;;;;;61.37;31.17;;;4.60;97.60;;;;;;5094269;28;20028;-80
2022/12/05 01:09:13;;;;;;;61.77;32.13;;;4.60;97.70;;;;;;5093067;28;20037;-80
2022/12/05 01:11:39;;;;;;;53.23;29.07;;;4.60;97.60;;;;;;5095352;28;20028;-80
2022/12/05 01:14:04;;;;;;;60.83;30.43;;;4.60;97.70;;;;;;5077233;28;20123;-80
2022/12/05 01:16:33;;;;;;;61.13;32.80;;;4.70;97.90;;;;;;5077342;28;20126;-80
2022/12/05 01:19:04;;;;;;;58.17;30.90;;;4.70;98.00;;;;;;5094033;28;20031;-80
2022/12/05 01:21:31;;;;;;;57.67;31.10;;;4.50;98.00;;;;;;5095139;28;20068;-80
2022/12/05 01:23:56;;;;;;;61.23;29.93;;;4.60;98.20;;;;;;5095178;28;20580;-80
2022/12/05 01:26:23;;;;;;;56.83;30.87;;;4.60;98.40;;;;;;5094107;28;20024;-80
2022/12/05 01:28:50;;;;;;;58.37;31.17;;;4.60;98.20;;;;;;5093865;28;20032;-79
2022/12/05 01:31:28;;;;;;;65.07;32.50;;;4.60;98.30;;;;;;5093758;28;20476;-80
2022/12/05 01:33:56;;;;;;;59.30;30.13;;;4.60;98.50;;;;;;5093754;28;20020;-80
2022/12/05 01:36:24;;;;;;;62.67;30.80;;;4.60;98.60;;;;;;5093588;28;20467;-80
2022/12/05 01:38:50;;;;;;;58.07;30.67;;;4.60;98.70;;;;;;5076895;28;20078;-80
2022/12/05 01:41:23;;;;;;;65.63;33.50;;;4.60;98.80;;;;;;5093628;28;20032;-80
2022/12/05 01:43:53;;;;;;;58.60;31.30;;;4.60;98.90;;;;;;5093286;28;20032;-80
2022/12/05 01:46:19;;;;;;;62.40;32.33;;;4.60;99.00;;;;;;5093464;28;20028;-80
2022/12/05 01:48:44;;;;;;;61.23;31.07;;;4.60;99.10;;;;;;5093308;28;20486;-80
2022/12/05 01:51:11;;;;;;;63.87;31.60;;;4.60;99.10;;;;;;5094766;28;20039;-80
2022/12/05 01:53:36;;;;;;;65.57;30.10;;;4.60;99.30;;;;;;5076649;28;20030;-80
2022/12/05 01:56:03;;;;;;;57.47;30.07;;;4.50;99.30;;;;;;5110163;28;20024;-80
2022/12/05 01:58:33;;;;;;;58.63;30.17;;;4.60;99.30;;;;;;5093208;28;20020;-80
2022/12/05 02:00:59;;;;;;;58.13;30.93;;;4.60;99.30;;;;;;5093198;28;20028;-81
2022/12/05 02:03:25;;;;;;;59.23;30.37;;;4.60;99.30;;;;;;5076397;28;20027;-80
2022/12/05 02:05:53;;;;;;;61.80;30.50;;;4.60;99.50;;;;;;5076246;28;20035;-81
2022/12/05 02:08:18;;;;;;;56.60;30.00;;;4.60;99.70;;;;;;5076510;28;20484;-80
2022/12/05 02:10:51;;;;;;;60.67;30.33;;;4.60;99.70;;;;;;5093142;28;20113;-80
2022/12/05 02:13:35;;;;;;;58.50;30.77;;;4.60;99.90;;;;;;5093149;28;20031;-80
2022/12/05 02:16:40;;;;;;;50.75;28.02;;;4.70;99.80;;;;;;5093342;28;20024;-80
2022/12/05 02:19:24;;;;;;;;;;;4.70;99.90;;;;;;5093537;28;20021;-80
2022/12/05 02:22:05;;;;;;;54.83;29.57;;;4.70;99.90;;;;;;5093754;28;19911;-80
2022/12/05 02:24:52;;;;;;;50.13;27.93;;;4.70;99.90;;;;;;5096292;28;20269;-81
2022/12/05 02:27:53;;;;;;;62.80;31.17;;;4.70;99.90;;;;;;5099962;28;20123;-80
2022/12/05 02:30:21;;;;;;;52.43;27.93;;;4.70;99.90;;;;;;5103108;28;20023;-80
2022/12/05 02:33:06;;;;;;;54.87;28.40;;;4.70;99.90;;;;;;5095122;28;20054;-80
2022/12/05 02:35:47;;;;;;;54.67;27.97;;;4.70;99.90;;;;;;5096318;28;20028;-80
2022/12/05 02:39:00;;;;;;;54.80;28.03;;;4.70;99.90;;;;;;5100686;28;20034;-81
2022/12/05 02:41:47;;;;;;;50.33;28.43;;;4.70;99.90;;;;;;5087849;28;20093;-80
2022/12/05 02:44:17;;;;;;;51.47;27.07;;;4.70;99.90;;;;;;5092541;28;20047;-80
2022/12/05 02:46:45;;;;;;;51.03;26.87;;;4.70;99.90;;;;;;5092443;28;20357;-81
2022/12/05 02:49:16;;;;;;;50.70;29.00;;;4.70;99.90;;;;;;5093616;28;20099;-80
2022/12/05 02:51:47;;;;;;;50.43;27.10;;;4.80;99.90;;;;;;5093732;28;20024;-80
2022/12/05 02:54:19;;;;;;;49.80;25.80;;;4.70;99.90;;;;;;5092281;28;20020;-80
2022/12/05 02:56:46;;;;;;;50.10;26.50;;;4.80;99.90;;;;;;5093516;28;20028;-80
2022/12/05 02:59:12;;;;;;;51.17;26.00;;;4.80;99.90;;;;;;5092021;28;20547;-80
2022/12/05 03:01:38;;;;;;;49.70;27.53;;;4.80;99.90;;;;;;5092444;28;20063;-80
2022/12/05 03:04:06;;;;;;;51.03;26.57;;;4.80;99.90;;;;;;5093561;28;20038;-80
2022/12/05 03:06:56;;;;;;;55.80;27.50;;;4.80;99.90;;;;;;5093571;28;20490;-80
2022/12/05 03:09:30;;;;;;;48.10;25.13;;;4.90;99.90;;;;;;5092149;28;20114;-80
2022/12/05 03:12:00;;;;;;;48.80;26.15;;;4.80;99.90;;;;;;5091969;28;20115;-81
2022/12/05 03:14:31;;;;;;;50.57;28.00;;;4.90;99.90;;;;;;5093572;28;20028;-81
2022/12/05 03:17:00;;;;;;;53.83;27.07;;;5.00;99.90;;;;;;5093287;28;20077;-80
2022/12/05 03:19:33;;;;;;;51.20;26.93;;;4.90;99.90;;;;;;5093401;28;20035;-79
2022/12/05 03:22:09;;;;;;;46.57;25.80;;;4.90;99.90;;;;;;5091914;28;20031;-78
2022/12/05 03:24:39;;;;;;;47.63;25.37;;;4.90;99.90;;;;;;5091892;28;20460;-80
2022/12/05 03:27:15;;;;;;;47.87;25.87;;;5.00;99.90;;;;;;5092265;28;20031;-80
2022/12/05 03:30:02;;;;;;;43.03;23.07;;;4.90;99.90;;;;;;5091976;28;20028;-81
2022/12/05 03:32:40;;;;;;;48.73;26.90;;;5.00;99.90;;;;;;5093302;28;20456;-81
2022/12/05 03:35:23;;;;;;;43.00;23.77;;;5.00;99.90;;;;;;5097167;28;20498;-81
2022/12/05 03:37:58;;;;;;;46.10;23.77;;;5.00;99.90;;;;;;5095872;28;20391;-81
2022/12/05 03:40:33;;;;;;;42.63;22.70;;;5.00;99.90;;;;;;5096070;28;20047;-81
2022/12/05 03:43:14;;;;;;;48.07;24.70;;;5.00;99.90;;;;;;5096931;28;20089;-80
2022/12/05 03:45:51;;;;;;;46.53;24.73;;;5.00;99.90;;;;;;5096205;28;20025;-80
2022/12/05 03:48:20;;;;;;;43.83;24.00;;;5.00;99.90;;;;;;5095804;28;20383;-80
2022/12/05 03:50:48;;;;;;;41.97;22.93;;;5.00;99.90;;;;;;5096993;28;20108;-80
2022/12/05 03:53:23;;;;;;;44.63;23.60;;;5.00;99.90;;;;;;5096879;28;20024;-80
2022/12/05 03:55:58;;;;;;;40.10;22.67;;;5.00;99.90;;;;;;5095452;28;20028;-78
2022/12/05 03:58:36;;;;;;;41.37;24.40;;;5.10;99.90;;;;;;5096643;28;20041;-79
2022/12/05 04:01:04;;;;;;;44.77;23.53;;;5.00;99.90;;;;;;5095537;28;20031;-79
2022/12/05 04:03:41;;;;;;;38.50;23.17;;;5.10;99.90;;;;;;5095525;28;20517;-79
2022/12/05 04:06:32;;;;;;;43.57;21.83;;;5.10;99.90;;;;;;5097013;28;20499;-79
2022/12/05 04:09:15;;;;;;;44.73;24.60;;;5.10;99.90;;;;;;5095766;28;20156;-79
2022/12/05 04:11:47;;;;;;;43.23;25.23;;;5.20;99.90;;;;;;5095333;28;20032;-80
2022/12/05 04:14:32;;;;;;;41.30;23.53;;;5.10;99.90;;;;;;5095212;28;20476;-80
2022/12/05 04:17:07;;;;;;;37.60;22.00;;;5.20;99.90;;;;;;5096456;28;20153;-80
2022/12/05 04:22:39;;;;;;;39.85;22.92;;;5.30;99.90;;;;;;5096638;28;20035;-80
2022/12/05 04:28:11;;;;;;;46.00;26.20;;;5.20;99.90;;;;;;5096595;28;20046;-79
2022/12/05 04:30:47;;;;;;;42.92;23.35;;;5.20;99.90;;;;;;5094924;28;20042;-80
2022/12/05 04:33:44;;;;;;;47.13;25.93;;;5.20;99.90;;;;;;5094905;28;20027;-80
2022/12/05 04:36:22;;;;;;;50.03;25.20;;;5.20;99.90;;;;;;5096052;28;20567;-80
2022/12/05 04:38:53;;;;;;;46.07;26.30;;;5.20;99.90;;;;;;5094802;28;20040;-80
2022/12/05 04:41:30;;;;;;;43.97;23.83;;;5.20;99.90;;;;;;5094688;28;20430;-80
2022/12/05 04:44:00;;;;;;;51.03;26.13;;;5.20;99.90;;;;;;5094377;28;20055;-80
2022/12/05 04:46:26;;;;;;;45.77;25.43;;;5.20;99.90;;;;;;5094886;28;20024;-80
2022/12/05 04:48:57;;;;;;;43.37;24.73;;;5.20;99.90;;;;;;5095954;28;20028;-80
2022/12/05 04:51:25;;;;;;;42.57;23.90;;;5.20;99.90;;;;;;5094558;28;20024;-80
2022/12/05 04:53:56;;;;;;;50.10;25.47;;;5.20;99.90;;;;;;5111722;28;20069;-80
2022/12/05 04:56:28;;;;;;;47.60;25.80;;;5.20;99.90;;;;;;5095231;28;20063;-86
2022/12/05 04:58:55;;;;;;;40.83;23.30;;;5.20;99.90;;;;;;5095057;28;20048;-86
2022/12/05 05:01:27;;;;;;;47.60;25.13;;;5.20;99.90;;;;;;5096480;28;20027;-87
2022/12/05 05:04:01;;;;;;;46.70;26.07;;;5.20;99.90;;;;;;5095144;28;20115;-86
2022/12/05 05:06:27;;;;;;;45.10;23.70;;;5.20;99.90;;;;;;5096232;28;20032;-87
2022/12/05 05:08:55;;;;;;;42.27;23.57;;;5.20;99.90;;;;;;5095021;28;20285;-87
2022/12/05 05:11:22;;;;;;;44.77;25.40;;;5.20;99.90;;;;;;5094841;28;20126;-86
2022/12/05 05:13:48;;;;;;;41.47;22.03;;;5.20;99.90;;;;;;5094923;28;20035;-87
2022/12/05 05:16:17;;;;;;;42.37;23.03;;;5.10;99.90;;;;;;5078013;28;20032;-87
2022/12/05 05:18:43;;;;;;;39.83;22.93;;;5.20;99.90;;;;;;5094862;28;20039;-87
2022/12/05 05:21:27;;;;;;;41.43;22.97;;;5.10;99.90;;;;;;5094802;28;20051;-87
2022/12/05 05:23:53;;;;;;;37.20;21.43;;;5.20;99.90;;;;;;5094730;28;20039;-87
2022/12/05 05:26:20;;;;;;;37.53;21.57;;;5.20;99.90;;;;;;5094708;28;20046;-87
2022/12/05 05:28:46;;;;;;;41.30;22.63;;;5.30;99.90;;;;;;5078163;28;20055;-87
2022/12/05 05:31:12;;;;;;;37.47;21.47;;;5.20;99.90;;;;;;5094540;28;20036;-86
2022/12/05 05:33:38;;;;;;;36.20;20.47;;;5.20;99.90;;;;;;5094191;28;20036;-86
2022/12/05 05:36:06;;;;;;;38.80;21.70;;;5.30;99.90;;;;;;5077191;28;20353;-85
2022/12/05 05:38:39;;;;;;;39.43;21.70;;;5.30;99.90;;;;;;5077614;28;20028;-86
2022/12/05 05:41:10;;;;;;;38.83;22.15;;;5.30;99.90;;;;;;5095392;28;20460;-85
2022/12/05 05:43:36;;;;;;;35.47;20.77;;;5.30;99.90;;;;;;5095134;28;20071;-85
2022/12/05 05:46:03;;;;;;;39.83;22.80;;;5.20;99.90;;;;;;5094031;28;20036;-86
2022/12/05 05:48:29;;;;;;;39.07;22.00;;;5.30;99.90;;;;;;5095067;28;20080;-86
2022/12/05 05:50:58;;;;;;;37.63;21.33;;;5.30;99.90;;;;;;5093856;28;20434;-86
2022/12/05 05:53:24;;;;;;;35.97;20.80;;;5.30;99.90;;;;;;5092848;28;20035;-85
2022/12/05 05:55:49;;;;;;;35.20;20.23;;;5.40;99.90;;;;;;5076170;28;20028;-86
2022/12/05 05:58:15;;;;;;;37.20;20.73;;;5.40;99.90;;;;;;5073026;28;20366;-86
2022/12/05 06:00:41;;;;;;;38.83;22.43;;;5.40;99.90;;;;;;5105900;28;20349;-86
2022/12/05 06:03:07;;;;;;;35.50;20.83;;;5.40;99.90;;;;;;5086976;28;20388;-86
2022/12/05 06:05:32;;;;;;;36.50;21.83;;;5.40;99.90;;;;;;5069086;28;20024;-86
2022/12/05 06:07:58;;;;;;;37.40;21.40;;;5.40;99.90;;;;;;5054858;28;20040;-86
2022/12/05 06:10:24;;;;;;;37.97;21.23;;;5.40;99.90;;;;;;5069260;28;20131;-86
2022/12/05 06:12:49;;;;;;;33.23;19.93;;;5.40;99.90;;;;;;5092515;28;20027;-86
2022/12/05 06:15:15;;;;;;;39.17;22.00;;;5.40;99.90;;;;;;5074618;28;20120;-86
2022/12/05 06:17:41;;;;;;;35.47;19.67;;;5.40;99.90;;;;;;5074432;28;20111;-86
2022/12/05 06:20:07;;;;;;;36.03;20.40;;;5.40;99.90;;;;;;5070682;28;20031;-86
2022/12/05 06:22:33;;;;;;;33.73;19.73;;;5.40;99.90;;;;;;5069163;28;20031;-86
2022/12/05 06:24:58;;;;;;;33.80;19.60;;;5.50;99.90;;;;;;5076028;28;20016;-86
2022/12/05 06:27:24;;;;;;;35.73;21.20;;;5.40;99.90;;;;;;5102668;28;20042;-86
2022/12/05 06:29:50;;;;;;;37.20;19.40;;;5.50;99.90;;;;;;5078369;28;20048;-86
2022/12/05 06:32:16;;;;;;;34.30;20.27;;;5.50;99.90;;;;;;5080248;28;20028;-86
2022/12/05 06:34:41;;;;;;;34.50;20.23;;;5.50;99.90;;;;;;5072664;28;20024;-86
2022/12/05 06:37:07;;;;;;;37.47;21.90;;;5.60;99.90;;;;;;5087056;28;20037;-85
2022/12/05 06:39:33;;;;;;;35.70;21.33;;;5.50;99.90;;;;;;5091131;28;20024;-86
2022/12/05 06:41:58;;;;;;;34.77;21.10;;;5.40;99.90;;;;;;5085347;28;20472;-85
2022/12/05 06:44:25;;;;;;;35.30;21.17;;;5.50;99.90;;;;;;5086904;28;20048;-86
2022/12/05 06:46:52;;;;;;;38.87;21.43;;;5.40;99.90;;;;;;5072407;28;20032;-85
2022/12/05 06:49:18;;;;;;;35.30;21.50;;;5.50;99.90;;;;;;5082345;28;20024;-86
2022/12/05 06:51:44;;;;;;;34.33;20.03;;;5.40;99.90;;;;;;5082695;28;20039;-85
2022/12/05 06:54:13;;;;;;;34.47;21.00;;;5.60;99.90;;;;;;5064046;28;20038;-86
2022/12/05 06:56:39;;;;;;;32.17;20.03;;;5.50;99.90;;;;;;5061914;28;20489;-85
2022/12/05 06:59:05;;;;;;;34.57;20.53;;;5.50;99.90;;;;;;5085916;28;20107;-86
2022/12/05 07:01:40;;;;;;;34.23;19.90;;;5.50;99.90;;;;;;5066172;28;20028;-85
2022/12/05 07:04:14;;;;;;;32.77;20.63;;;5.50;99.90;;;;;;5081630;28;20020;-85
2022/12/05 07:06:41;;;;;;;29.23;19.25;;;5.50;99.90;;;;;;5092662;28;20128;-85
2022/12/05 07:09:07;;;;;;;35.50;20.83;;;5.50;99.90;;;;;;5082574;28;20036;-85
2022/12/05 07:11:32;;;;;;;32.80;19.00;;;5.50;99.90;;;;;;5089290;28;20431;-85
2022/12/05 07:13:58;;;;;;;32.20;19.60;;;5.60;99.90;;;;;;5061527;28;20032;-85
2022/12/05 07:16:24;;;;;;;34.57;19.73;;;5.50;99.90;;;;;;5090710;28;20032;-85
2022/12/05 07:18:49;;;;;;;33.57;19.83;;;5.50;99.90;;;;;;5091368;28;20024;-84
2022/12/05 07:21:15;;;;;;;29.67;18.40;;;5.60;99.90;;;;;;5073213;28;20107;-85
2022/12/05 07:23:43;;;;;;;30.70;19.30;;;5.60;99.90;;;;;;5091461;28;20475;-84
2022/12/05 07:26:12;;;;;;;30.57;18.27;;;5.60;99.90;;;;;;5075230;28;20032;-85
2022/12/05 07:28:37;;;;;;;32.47;19.80;;;5.60;99.90;;;;;;5093319;28;20099;-85
2022/12/05 07:31:09;;;;;;;32.03;18.93;;;5.70;99.90;;;;;;5093183;28;20028;-85
2022/12/05 07:33:35;;;;;;;32.47;19.00;;;5.60;99.90;;;;;;5093135;28;20020;-84
2022/12/05 07:36:03;;;;;;;30.13;17.73;;;5.60;99.90;;;;;;5091899;28;20024;-84
2022/12/05 07:38:29;;;;;;;30.50;18.27;;;5.60;99.90;;;;;;5093145;28;20103;-85
2022/12/05 07:40:54;;;;;;;30.93;18.37;;;5.60;99.90;;;;;;5092034;28;20055;-84
2022/12/05 07:43:20;;;;;;;31.47;19.63;;;5.60;99.90;;;;;;5074947;28;20075;-85
2022/12/05 07:45:46;;;;;;;30.23;17.97;;;5.60;99.90;;;;;;5092115;28;20024;-85
2022/12/05 07:48:11;;;;;;;27.37;16.67;;;5.60;99.90;;;;;;5075106;28;20032;-85
2022/12/05 07:50:37;;;;;;;28.90;17.83;;;5.70;99.90;;;;;;5075125;28;20024;-85
2022/12/05 07:53:03;;;;;;;28.93;18.10;;;5.70;99.90;;;;;;5075259;28;20091;-85
2022/12/05 07:55:28;;;;;;;32.23;19.10;;;5.70;99.90;;;;;;5075095;28;20028;-85
2022/12/05 07:57:54;;;;;;;28.70;16.67;;;5.70;99.90;;;;;;5091839;28;20032;-85
2022/12/05 08:00:20;;;;;;;27.00;17.00;;;5.70;99.90;;;;;;5075061;28;20031;-85
2022/12/05 08:02:46;;;;;;;30.47;18.27;;;5.70;99.90;;;;;;5091858;28;20383;-86
2022/12/05 08:05:12;;;;;;;28.90;18.10;;;5.70;99.90;;;;;;5092859;28;20024;-85
2022/12/05 08:07:37;;;;;;;29.10;17.47;;;5.70;99.90;;;;;;5075018;28;20029;-84
2022/12/05 08:10:03;;;;;;;30.47;17.03;;;5.70;99.90;;;;;;5073383;28;20032;-85
2022/12/05 08:12:29;;;;;;;29.10;17.27;;;5.80;99.90;;;;;;5090455;28;20375;-85
2022/12/05 08:14:55;;;;;;;27.23;17.47;;;5.70;99.90;;;;;;5074766;28;20021;-85
2022/12/05 08:17:20;;;;;;;28.70;17.23;;;5.70;99.90;;;;;;5091580;28;20052;-86
2022/12/05 08:19:46;;;;;;;23.90;15.73;;;5.70;99.90;;;;;;5077978;28;20474;-85
2022/12/05 08:22:12;;;;;;;27.03;16.73;;;5.70;99.90;;;;;;5095200;28;20024;-84
2022/12/05 08:24:37;;;;;;;27.70;17.97;;;5.70;99.90;;;;;;5094666;28;20020;-84
2022/12/05 08:27:04;;;;;;;27.93;16.90;;;5.80;99.90;;;;;;5095261;28;20388;-85
2022/12/05 08:29:30;;;;;;;25.93;16.80;;;5.80;99.90;;;;;;5095080;28;20020;-85
2022/12/05 08:31:56;;;;;;;27.83;17.87;;;5.80;99.90;;;;;;5095620;28;20035;-85
2022/12/05 08:34:21;;;;;;;26.30;16.50;;;5.80;99.90;;;;;;5078329;28;20426;-85
2022/12/05 08:36:47;;;;;;;26.73;17.00;;;5.80;99.90;;;;;;5078256;28;20024;-85
2022/12/05 08:39:16;;;;;;;26.23;16.67;;;5.90;99.90;;;;;;5095447;28;20020;-83
2022/12/05 08:41:42;;;;;;;29.53;16.57;;;5.80;99.90;;;;;;5096356;28;20026;-85
2022/12/05 08:44:10;;;;;;;28.00;17.23;;;5.80;99.90;;;;;;5077907;28;20123;-84
2022/12/05 08:46:37;;;;;;;25.27;16.93;;;5.90;99.90;;;;;;5096376;28;20383;-85
2022/12/05 08:49:04;;;;;;;26.27;16.53;;;5.90;99.90;;;;;;5094975;28;20028;-85
2022/12/05 08:51:30;;;;;;;30.33;19.27;;;5.90;99.90;;;;;;5095931;28;20027;-84
2022/12/05 08:53:56;;;;;;;27.50;17.30;;;5.90;99.90;;;;;;5077898;28;20388;-85
2022/12/05 08:56:22;;;;;;;28.80;18.00;;;5.90;99.90;;;;;;5078196;28;20074;-85
2022/12/05 08:58:48;;;;;;;27.57;17.60;;;6.00;99.90;;;;;;5096716;28;20035;-85
2022/12/05 09:01:17;;;;;;;28.20;17.63;;;5.90;99.90;;;;;;5095216;28;20551;-85
2022/12/05 09:03:43;;;;;;;30.37;18.77;;;5.90;99.90;;;;;;5096675;28;20020;-85
2022/12/05 09:06:13;;;;;;;30.10;18.03;;;6.00;99.90;;;;;;5078159;28;20024;-85
2022/12/05 09:08:40;;;;;;;29.07;17.40;;;6.00;99.90;;;;;;5095718;28;20125;-84
2022/12/05 09:11:08;;;;;;;29.00;18.00;;;6.00;99.90;;;;;;5077608;28;20016;-84
2022/12/05 09:13:34;;;;;;;30.47;18.70;;;6.00;99.90;;;;;;5094165;28;20081;-85
2022/12/05 09:16:12;;;;;;;29.57;18.80;;;6.00;99.90;;;;;;5094277;28;20031;-84
2022/12/05 09:18:38;;;;;;;32.07;19.50;;;6.00;99.90;;;;;;5094286;28;20021;-84
2022/12/05 09:21:15;;;;;;;35.27;20.20;;;6.00;99.90;;;;;;5095361;28;20101;-84
2022/12/05 09:23:41;;;;;;;30.13;18.97;;;6.10;99.90;;;;;;5094080;28;20483;-85
2022/12/05 09:26:11;;;;;;;33.80;19.93;;;6.10;99.90;;;;;;5095221;28;20032;-84
2022/12/05 09:28:37;;;;;;;32.87;21.03;;;6.00;99.90;;;;;;5093978;28;20054;-84
2022/12/05 09:31:09;;;;;;;32.93;19.27;;;6.00;99.90;;;;;;5094038;28;20024;-84
2022/12/05 09:33:36;;;;;;;35.17;19.87;;;6.00;99.90;;;;;;5093795;28;20028;-84
2022/12/05 09:36:07;;;;;;;33.23;20.60;;;6.10;99.90;;;;;;5093646;28;20020;-84
2022/12/05 09:38:33;;;;;;;32.00;19.33;;;6.10;99.90;;;;;;5077954;28;20036;-84
2022/12/05 09:41:07;;;;;;;34.67;19.53;;;6.20;99.90;;;;;;5095279;28;20028;-84
2022/12/05 09:43:47;;;;;;;33.63;19.57;;;6.10;99.90;;;;;;5094980;28;20032;-84
2022/12/05 09:46:35;;;;;;;34.63;21.10;;;6.10;99.90;;;;;;5094466;28;20031;-84
2022/12/05 09:49:03;;;;;;;31.03;18.60;;;6.10;99.90;;;;;;5077358;28;20036;-85
2022/12/05 09:51:31;;;;;;;34.20;20.07;;;6.10;99.90;;;;;;5092007;28;20119;-84
2022/12/05 09:53:56;;;;;;;33.93;20.03;;;6.20;99.90;;;;;;5094712;28;20028;-84
2022/12/05 09:56:26;;;;;;;37.33;20.40;;;6.20;99.90;;;;;;5093297;28;20511;-84
2022/12/05 09:58:57;;;;;;;37.43;21.57;;;6.10;99.90;;;;;;5094551;28;20507;-85
2022/12/05 10:01:51;;;;;;;36.77;19.57;;;6.10;99.90;;;;;;5094749;28;20020;-84
2022/12/05 10:04:38;;;;;;;35.77;20.93;;;6.10;99.90;;;;;;5093163;28;20020;-84
2022/12/05 10:07:07;;;;;;;34.57;20.43;;;6.20;99.90;;;;;;5093243;28;20086;-84
2022/12/05 10:10:02;;;;;;;33.07;20.23;;;6.20;99.90;;;;;;5093017;28;20049;-84
2022/12/05 10:12:34;;;;;;;35.00;19.17;;;6.20;99.90;;;;;;5093063;28;20471;-84
2022/12/05 10:15:18;;;;;;;37.07;21.27;;;6.20;99.90;;;;;;5094185;28;20036;-84
2022/12/05 10:18:09;;;;;;;38.30;20.85;;;6.20;99.90;;;;;;5092959;28;20119;-84
2022/12/05 10:20:40;;;;;;;33.27;20.13;;;6.20;99.90;;;;;;5042435;28;20123;-84
2022/12/05 10:23:21;;;;;;;34.27;20.93;;;6.20;99.90;;;;;;5092923;28;20035;-84
2022/12/05 10:25:50;;;;;;;33.67;19.53;;;6.30;99.90;;;;;;5094269;28;20024;-84
2022/12/05 10:28:38;;;;;;;33.07;19.60;;;6.20;99.90;;;;;;5094198;28;20526;-84
2022/12/05 10:31:08;;;;;;;34.90;20.67;;;6.20;99.90;;;;;;5092749;28;20076;-84
2022/12/05 10:33:42;;;;;;;37.63;20.03;;;6.20;99.90;;;;;;5094220;28;20384;-84
2022/12/05 10:36:17;;;;;;;35.50;18.92;;;6.30;99.90;;;;;;5092597;28;20028;-84
2022/12/05 10:38:45;;;;;;;35.67;21.20;;;6.40;99.90;;;;;;5093969;28;20044;-84
2022/12/05 10:41:12;;;;;;;36.03;19.00;;;6.30;99.90;;;;;;5093761;28;20016;-84
2022/12/05 10:43:45;;;;;;;36.57;20.77;;;6.30;99.90;;;;;;5075939;28;20055;-83
2022/12/05 10:46:15;;;;;;;36.70;20.37;;;6.30;99.90;;;;;;5075710;28;20033;-84
2022/12/05 10:48:42;;;;;;;35.40;19.67;;;6.30;99.90;;;;;;5092586;28;20020;-83
2022/12/05 10:51:16;;;;;;;33.30;20.03;;;6.30;99.90;;;;;;5093836;28;20115;-83
2022/12/05 10:53:48;;;;;;;36.80;20.53;;;6.40;99.90;;;;;;5093993;28;20078;-84
2022/12/05 10:56:41;;;;;;;35.73;19.30;;;6.40;99.90;;;;;;5093187;28;20028;-84
2022/12/05 10:59:08;;;;;;;35.90;19.87;;;6.40;99.90;;;;;;5093553;28;20048;-84
2022/12/05 11:01:35;;;;;;;35.43;19.70;;;6.40;99.90;;;;;;5092564;28;20487;-84
2022/12/05 11:04:09;;;;;;;35.60;20.20;;;6.40;99.90;;;;;;5092541;28;20027;-84
2022/12/05 11:06:35;;;;;;;;;;;6.40;99.90;;;;;;5094653;28;20028;-84
2022/12/05 11:09:18;;;;;;;31.40;17.53;;;6.50;99.90;;;;;;5092281;28;20002;-83
2022/12/05 11:12:00;;;;;;;33.53;18.93;;;6.40;99.90;;;;;;5093459;28;20020;-83
2022/12/05 11:14:27;;;;;;;30.60;18.60;;;6.50;99.90;;;;;;5092423;28;20020;-84
2022/12/05 11:16:56;;;;;;;35.10;18.40;;;6.50;99.90;;;;;;5092009;28;20032;-84
2022/12/05 11:19:21;;;;;;;31.13;18.37;;;6.50;99.90;;;;;;5092239;28;20085;-85
2022/12/05 11:21:48;;;;;;;31.53;18.73;;;6.50;99.90;;;;;;5092568;28;20028;-83
2022/12/05 11:24:37;;;;;;;29.93;18.40;;;6.50;99.90;;;;;;5092162;28;20062;-84
2022/12/05 11:27:15;;;;;;;32.53;19.40;;;6.50;99.90;;;;;;5093388;28;20020;-84
2022/12/05 11:29:42;;;;;;;30.53;18.03;;;6.60;99.90;;;;;;5093210;28;20116;-84
2022/12/05 11:32:20;;;;;;;30.47;18.20;;;6.60;99.90;;;;;;5092250;28;20039;-84
2022/12/05 11:35:11;;;;;;;32.17;19.17;;;6.60;99.90;;;;;;5093506;28;20411;-84
2022/12/05 11:37:45;;;;;;;28.30;17.73;;;6.60;99.90;;;;;;5053927;28;20040;-83
2022/12/05 11:40:17;;;;;;;25.25;16.05;;;6.60;99.90;;;;;;5091787;28;20028;-84
2022/12/05 11:42:50;;;;;;;23.60;15.17;;;6.60;99.90;;;;;;5093327;28;20537;-83
2022/12/05 11:45:31;;;;;;;24.10;15.60;;;6.60;99.90;;;;;;5092055;28;20567;-83
2022/12/05 11:48:20;;;;;;;26.47;15.63;;;6.60;99.90;;;;;;5093174;28;20027;-84
2022/12/05 11:51:15;;;;;;;21.57;14.70;;;6.60;99.90;;;;;;5091706;28;20016;-84
2022/12/05 11:53:44;;;;;;;;;;;6.50;99.90;;;;;;5080536;28;20035;-84
2022/12/05 11:56:24;;;;;;;21.40;13.10;;;6.50;99.90;;;;;;5095724;28;19904;-83
2022/12/05 11:59:02;;;;;;;19.70;13.33;;;6.50;99.90;;;;;;5096854;28;20024;-84
2022/12/05 12:01:42;;;;;;;18.97;13.13;;;6.40;99.90;;;;;;5095636;28;20063;-83
2022/12/05 12:04:11;;;;;;;19.93;13.60;;;6.40;99.90;;;;;;5095803;28;20020;-83
2022/12/05 12:06:50;;;;;;;19.23;13.10;;;6.40;99.90;;;;;;5096904;28;20085;-83
2022/12/05 12:09:43;;;;;;;18.50;12.87;;;6.40;99.90;;;;;;5095370;28;20062;-84
2022/12/05 12:12:28;;;;;;;17.93;12.00;;;6.40;99.90;;;;;;5096680;28;20020;-83
2022/12/05 12:15:03;;;;;;;20.53;13.27;;;6.40;99.90;;;;;;5095272;28;20040;-84
2022/12/05 12:17:50;;;;;;;20.63;13.63;;;6.40;99.90;;;;;;5095462;28;20024;-84
2022/12/05 12:20:35;;;;;;;18.20;12.60;;;6.40;99.90;;;;;;5095350;28;20373;-83
2022/12/05 12:23:13;;;;;;;18.70;13.03;;;6.40;99.90;;;;;;5095247;28;20031;-84
2022/12/05 12:26:17;;;;;;;19.37;12.57;;;6.40;99.90;;;;;;5095188;28;20027;-83
2022/12/05 12:29:03;;;;;;;19.97;13.20;;;6.40;99.90;;;;;;5095144;28;20515;-83
2022/12/05 12:32:00;;;;;;;17.63;11.83;;;6.40;99.90;;;;;;5044374;28;20472;-84
2022/12/05 12:34:32;;;;;;;17.77;11.90;;;6.30;99.90;;;;;;5095033;28;20078;-83
2022/12/05 12:37:06;;;;;;;17.87;11.57;;;6.30;99.90;;;;;;5094999;28;20039;-84
2022/12/05 12:39:47;;;;;;;17.63;12.10;;;6.30;99.90;;;;;;5095024;28;20020;-84
2022/12/05 12:42:33;;;;;;;16.57;11.03;;;6.30;99.90;;;;;;5096240;28;20055;-84
2022/12/05 12:45:18;;;;;;;15.93;11.37;;;6.30;99.90;;;;;;5094749;28;20085;-84
2022/12/05 12:48:10;;;;;;;17.60;11.30;;;6.20;99.90;;;;;;5094684;28;20115;-83
2022/12/05 12:50:41;;;;;;;18.47;11.13;;;6.30;99.90;;;;;;5048275;28;20035;-83
2022/12/05 12:53:44;;;;;;;19.07;11.93;;;6.30;99.90;;;;;;5094665;28;20073;-84
2022/12/05 12:56:22;;;;;;;16.77;10.60;;;6.30;99.90;;;;;;5094692;28;20046;-84
2022/12/05 12:59:25;;;;;;;18.33;11.67;;;6.20;99.90;;;;;;5096115;28;20028;-84
2022/12/05 13:01:59;;;;;;;15.63;10.40;;;6.20;99.90;;;;;;5094408;28;20046;-83
2022/12/05 13:04:39;;;;;;;18.83;12.23;;;6.20;99.90;;;;;;5094810;28;20127;-84
2022/12/05 13:07:32;;;;;;;17.50;11.50;;;6.20;99.90;;;;;;5095858;28;20016;-84